sensor_id;sensor_type;location;lat;lon;timestamp;P1;durP1;ratioP1;P2;durP2;ratioP2
23543;SDS011;11950;51.230;4.012;2023-02-01T00:00:34;16.23;;;3.80;;
23543;SDS011;11950;51.230;4.012;2023-02-01T00:03:00;16.70;;;3.45;;
23543;SDS011;11950;51.230;4.012;2023-02-01T00:05:27;18.15;;;4.32;;
23543;SDS011;11950;51.230;4.012;2023-02-01T00:07:53;11.15;;;3.38;;
23543;SDS011;11950;51.230;4.012;2023-02-01T00:10:19;13.57;;;3.45;;
23543;SDS011;11950;51.230;4.012;2023-02-01T00:12:45;16.95;;;4.05;;
23543;SDS011;11950;51.230;4.012;2023-02-01T00:15:12;18.65;;;4.22;;
23543;SDS011;11950;51.230;4.012;2023-02-01T00:17:38;20.80;;;4.13;;
23543;SDS011;11950;51.230;4.012;2023-02-01T00:20:04;19.98;;;3.38;;
23543;SDS011;11950;51.230;4.012;2023-02-01T00:22:31;22.13;;;4.28;;
23543;SDS011;11950;51.230;4.012;2023-02-01T00:24:57;18.95;;;3.53;;
23543;SDS011;11950;51.230;4.012;2023-02-01T00:27:24;15.85;;;3.85;;
23543;SDS011;11950;51.230;4.012;2023-02-01T00:29:50;17.10;;;3.58;;
23543;SDS011;11950;51.230;4.012;2023-02-01T00:32:16;13.48;;;4.18;;
23543;SDS011;11950;51.230;4.012;2023-02-01T00:34:42;14.70;;;3.47;;
23543;SDS011;11950;51.230;4.012;2023-02-01T00:37:09;12.60;;;3.20;;
23543;SDS011;11950;51.230;4.012;2023-02-01T00:39:35;15.55;;;3.85;;
23543;SDS011;11950;51.230;4.012;2023-02-01T00:42:01;15.38;;;3.38;;
23543;SDS011;11950;51.230;4.012;2023-02-01T00:44:28;18.40;;;4.15;;
23543;SDS011;11950;51.230;4.012;2023-02-01T00:46:58;14.48;;;3.80;;
23543;SDS011;11950;51.230;4.012;2023-02-01T00:49:25;16.33;;;3.35;;
23543;SDS011;11950;51.230;4.012;2023-02-01T00:51:52;17.88;;;3.00;;
23543;SDS011;11950;51.230;4.012;2023-02-01T00:54:18;13.93;;;3.95;;
23543;SDS011;11950;51.230;4.012;2023-02-01T00:56:45;16.25;;;2.90;;
23543;SDS011;11950;51.230;4.012;2023-02-01T00:59:11;17.45;;;3.15;;
23543;SDS011;11950;51.230;4.012;2023-02-01T01:01:38;15.50;;;3.03;;
23543;SDS011;11950;51.230;4.012;2023-02-01T01:04:04;15.57;;;3.05;;
23543;SDS011;11950;51.230;4.012;2023-02-01T01:06:32;15.98;;;2.97;;
23543;SDS011;11950;51.230;4.012;2023-02-01T01:08:59;18.10;;;2.83;;
23543;SDS011;11950;51.230;4.012;2023-02-01T01:11:29;16.45;;;3.00;;
23543;SDS011;11950;51.230;4.012;2023-02-01T01:13:58;18.58;;;3.60;;
23543;SDS011;11950;51.230;4.012;2023-02-01T01:16:26;13.40;;;2.92;;
23543;SDS011;11950;51.230;4.012;2023-02-01T01:18:54;17.45;;;3.17;;
23543;SDS011;11950;51.230;4.012;2023-02-01T01:21:22;20.83;;;3.42;;
23543;SDS011;11950;51.230;4.012;2023-02-01T01:23:49;10.00;;;2.30;;
23543;SDS011;11950;51.230;4.012;2023-02-01T01:26:17;17.67;;;3.60;;
23543;SDS011;11950;51.230;4.012;2023-02-01T01:28:45;14.30;;;2.88;;
23543;SDS011;11950;51.230;4.012;2023-02-01T01:31:13;18.15;;;2.75;;
23543;SDS011;11950;51.230;4.012;2023-02-01T01:33:41;18.02;;;2.35;;
23543;SDS011;11950;51.230;4.012;2023-02-01T01:36:09;19.27;;;2.72;;
23543;SDS011;11950;51.230;4.012;2023-02-01T01:38:38;17.55;;;3.15;;
23543;SDS011;11950;51.230;4.012;2023-02-01T01:41:05;12.23;;;2.83;;
23543;SDS011;11950;51.230;4.012;2023-02-01T01:46:31;22.88;;;2.72;;
23543;SDS011;11950;51.230;4.012;2023-02-01T01:49:04;14.75;;;2.35;;
23543;SDS011;11950;51.230;4.012;2023-02-01T01:51:41;12.48;;;2.50;;
23543;SDS011;11950;51.230;4.012;2023-02-01T01:54:29;18.05;;;2.53;;
23543;SDS011;11950;51.230;4.012;2023-02-01T01:57:04;17.98;;;2.42;;
23543;SDS011;11950;51.230;4.012;2023-02-01T01:59:34;14.63;;;2.63;;
23543;SDS011;11950;51.230;4.012;2023-02-01T02:02:04;16.83;;;2.47;;
23543;SDS011;11950;51.230;4.012;2023-02-01T02:04:31;20.85;;;2.78;;
23543;SDS011;11950;51.230;4.012;2023-02-01T02:07:08;13.82;;;2.13;;
23543;SDS011;11950;51.230;4.012;2023-02-01T02:09:42;14.38;;;2.17;;
23543;SDS011;11950;51.230;4.012;2023-02-01T02:12:09;12.55;;;1.92;;
23543;SDS011;11950;51.230;4.012;2023-02-01T02:14:35;10.20;;;2.25;;
23543;SDS011;11950;51.230;4.012;2023-02-01T02:23:37;9.52;;;2.20;;
23543;SDS011;11950;51.230;4.012;2023-02-01T02:36:43;15.88;;;2.58;;
23543;SDS011;11950;51.230;4.012;2023-02-01T02:42:13;14.38;;;1.98;;
23543;SDS011;11950;51.230;4.012;2023-02-01T02:51:13;10.85;;;2.67;;
23543;SDS011;11950;51.230;4.012;2023-02-01T02:56:59;15.70;;;2.30;;
23543;SDS011;11950;51.230;4.012;2023-02-01T02:59:48;17.00;;;2.50;;
23543;SDS011;11950;51.230;4.012;2023-02-01T03:02:33;14.07;;;2.10;;
23543;SDS011;11950;51.230;4.012;2023-02-01T03:05:19;12.73;;;2.42;;
23543;SDS011;11950;51.230;4.012;2023-02-01T03:07:57;14.15;;;2.38;;
23543;SDS011;11950;51.230;4.012;2023-02-01T03:14:01;12.50;;;2.50;;
23543;SDS011;11950;51.230;4.012;2023-02-01T03:24:03;12.65;;;3.13;;
23543;SDS011;11950;51.230;4.012;2023-02-01T03:26:36;15.63;;;2.20;;
23543;SDS011;11950;51.230;4.012;2023-02-01T03:29:14;15.52;;;2.85;;
23543;SDS011;11950;51.230;4.012;2023-02-01T03:31:45;11.02;;;2.05;;
23543;SDS011;11950;51.230;4.012;2023-02-01T03:34:12;15.35;;;2.47;;
23543;SDS011;11950;51.230;4.012;2023-02-01T03:36:50;15.13;;;2.40;;
23543;SDS011;11950;51.230;4.012;2023-02-01T03:39:35;18.30;;;2.42;;
23543;SDS011;11950;51.230;4.012;2023-02-01T03:42:09;15.88;;;2.38;;
23543;SDS011;11950;51.230;4.012;2023-02-01T03:44:49;19.88;;;2.22;;
23543;SDS011;11950;51.230;4.012;2023-02-01T03:47:20;11.52;;;2.47;;
23543;SDS011;11950;51.230;4.012;2023-02-01T03:49:55;10.20;;;1.95;;
23543;SDS011;11950;51.230;4.012;2023-02-01T03:52:28;20.85;;;2.47;;
23543;SDS011;11950;51.230;4.012;2023-02-01T03:55:03;16.55;;;2.47;;
23543;SDS011;11950;51.230;4.012;2023-02-01T03:57:35;16.40;;;2.40;;
23543;SDS011;11950;51.230;4.012;2023-02-01T04:00:08;16.25;;;2.20;;
23543;SDS011;11950;51.230;4.012;2023-02-01T04:02:43;15.23;;;2.58;;
23543;SDS011;11950;51.230;4.012;2023-02-01T04:05:10;16.00;;;2.67;;
23543;SDS011;11950;51.230;4.012;2023-02-01T04:07:40;20.37;;;3.43;;
23543;SDS011;11950;51.230;4.012;2023-02-01T04:10:07;17.95;;;2.47;;
23543;SDS011;11950;51.230;4.012;2023-02-01T04:12:34;16.90;;;2.38;;
23543;SDS011;11950;51.230;4.012;2023-02-01T04:15:00;21.30;;;2.45;;
23543;SDS011;11950;51.230;4.012;2023-02-01T04:17:27;20.13;;;3.38;;
23543;SDS011;11950;51.230;4.012;2023-02-01T04:19:53;19.15;;;2.60;;
23543;SDS011;11950;51.230;4.012;2023-02-01T04:22:19;18.30;;;3.08;;
23543;SDS011;11950;51.230;4.012;2023-02-01T04:24:46;21.20;;;3.10;;
23543;SDS011;11950;51.230;4.012;2023-02-01T04:27:12;20.63;;;2.90;;
23543;SDS011;11950;51.230;4.012;2023-02-01T04:29:39;20.65;;;2.70;;
23543;SDS011;11950;51.230;4.012;2023-02-01T04:32:07;19.95;;;3.25;;
23543;SDS011;11950;51.230;4.012;2023-02-01T04:34:33;13.63;;;2.42;;
23543;SDS011;11950;51.230;4.012;2023-02-01T04:36:59;15.85;;;2.65;;
23543;SDS011;11950;51.230;4.012;2023-02-01T04:39:25;18.23;;;2.78;;
23543;SDS011;11950;51.230;4.012;2023-02-01T04:41:52;18.08;;;2.72;;
23543;SDS011;11950;51.230;4.012;2023-02-01T04:44:18;12.93;;;2.20;;
23543;SDS011;11950;51.230;4.012;2023-02-01T04:46:45;15.18;;;3.15;;
23543;SDS011;11950;51.230;4.012;2023-02-01T04:49:13;16.23;;;2.40;;
23543;SDS011;11950;51.230;4.012;2023-02-01T04:51:40;14.75;;;2.63;;
23543;SDS011;11950;51.230;4.012;2023-02-01T04:54:07;15.32;;;2.80;;
23543;SDS011;11950;51.230;4.012;2023-02-01T04:56:34;11.27;;;1.88;;
23543;SDS011;11950;51.230;4.012;2023-02-01T04:59:00;20.88;;;3.42;;
23543;SDS011;11950;51.230;4.012;2023-02-01T05:01:29;25.65;;;2.80;;
23543;SDS011;11950;51.230;4.012;2023-02-01T05:03:56;15.73;;;2.70;;
23543;SDS011;11950;51.230;4.012;2023-02-01T05:06:23;18.95;;;2.38;;
23543;SDS011;11950;51.230;4.012;2023-02-01T05:08:49;15.98;;;2.22;;
23543;SDS011;11950;51.230;4.012;2023-02-01T05:11:16;18.15;;;2.10;;
23543;SDS011;11950;51.230;4.012;2023-02-01T05:14:00;18.77;;;2.72;;
23543;SDS011;11950;51.230;4.012;2023-02-01T05:16:27;14.30;;;2.63;;
23543;SDS011;11950;51.230;4.012;2023-02-01T05:18:53;23.52;;;2.63;;
23543;SDS011;11950;51.230;4.012;2023-02-01T05:21:20;11.60;;;2.72;;
23543;SDS011;11950;51.230;4.012;2023-02-01T05:23:46;15.32;;;2.72;;
23543;SDS011;11950;51.230;4.012;2023-02-01T05:26:31;16.20;;;3.28;;
23543;SDS011;11950;51.230;4.012;2023-02-01T05:28:57;15.40;;;2.83;;
23543;SDS011;11950;51.230;4.012;2023-02-01T05:31:24;18.85;;;2.10;;
23543;SDS011;11950;51.230;4.012;2023-02-01T05:33:50;18.27;;;2.65;;
23543;SDS011;11950;51.230;4.012;2023-02-01T05:36:16;13.55;;;2.20;;
23543;SDS011;11950;51.230;4.012;2023-02-01T05:38:43;17.55;;;2.28;;
23543;SDS011;11950;51.230;4.012;2023-02-01T05:41:09;12.98;;;3.33;;
23543;SDS011;11950;51.230;4.012;2023-02-01T05:43:35;16.00;;;2.15;;
23543;SDS011;11950;51.230;4.012;2023-02-01T05:46:02;14.77;;;2.15;;
23543;SDS011;11950;51.230;4.012;2023-02-01T05:48:28;15.30;;;1.98;;
23543;SDS011;11950;51.230;4.012;2023-02-01T05:50:54;14.00;;;2.05;;
23543;SDS011;11950;51.230;4.012;2023-02-01T05:53:21;17.30;;;2.63;;
23543;SDS011;11950;51.230;4.012;2023-02-01T05:55:47;12.70;;;2.55;;
23543;SDS011;11950;51.230;4.012;2023-02-01T05:58:13;14.23;;;2.00;;
23543;SDS011;11950;51.230;4.012;2023-02-01T06:00:39;18.42;;;2.55;;
23543;SDS011;11950;51.230;4.012;2023-02-01T06:03:06;22.05;;;2.45;;
23543;SDS011;11950;51.230;4.012;2023-02-01T06:05:32;15.05;;;2.45;;
23543;SDS011;11950;51.230;4.012;2023-02-01T06:07:58;18.70;;;2.47;;
23543;SDS011;11950;51.230;4.012;2023-02-01T06:10:25;14.05;;;2.30;;
23543;SDS011;11950;51.230;4.012;2023-02-01T06:12:51;14.32;;;2.47;;
23543;SDS011;11950;51.230;4.012;2023-02-01T06:15:18;14.27;;;2.33;;
23543;SDS011;11950;51.230;4.012;2023-02-01T06:17:44;15.40;;;1.90;;
23543;SDS011;11950;51.230;4.012;2023-02-01T06:20:12;12.70;;;1.73;;
23543;SDS011;11950;51.230;4.012;2023-02-01T06:22:40;17.25;;;2.13;;
23543;SDS011;11950;51.230;4.012;2023-02-01T06:25:07;9.77;;;1.88;;
23543;SDS011;11950;51.230;4.012;2023-02-01T06:27:35;15.93;;;2.38;;
23543;SDS011;11950;51.230;4.012;2023-02-01T06:30:03;16.15;;;2.10;;
23543;SDS011;11950;51.230;4.012;2023-02-01T06:32:30;13.50;;;2.22;;
23543;SDS011;11950;51.230;4.012;2023-02-01T06:34:57;14.98;;;2.20;;
23543;SDS011;11950;51.230;4.012;2023-02-01T06:37:23;15.63;;;2.05;;
23543;SDS011;11950;51.230;4.012;2023-02-01T06:39:59;15.30;;;2.17;;
23543;SDS011;11950;51.230;4.012;2023-02-01T06:42:25;12.48;;;1.92;;
23543;SDS011;11950;51.230;4.012;2023-02-01T06:44:52;11.00;;;1.80;;
23543;SDS011;11950;51.230;4.012;2023-02-01T06:47:18;12.65;;;1.77;;
23543;SDS011;11950;51.230;4.012;2023-02-01T06:49:44;18.05;;;2.10;;
23543;SDS011;11950;51.230;4.012;2023-02-01T06:52:11;15.65;;;1.80;;
23543;SDS011;11950;51.230;4.012;2023-02-01T06:54:37;17.10;;;1.88;;
23543;SDS011;11950;51.230;4.012;2023-02-01T06:57:03;20.33;;;2.78;;
23543;SDS011;11950;51.230;4.012;2023-02-01T06:59:29;12.07;;;2.17;;
23543;SDS011;11950;51.230;4.012;2023-02-01T07:01:56;21.10;;;3.55;;
23543;SDS011;11950;51.230;4.012;2023-02-01T07:04:22;13.52;;;2.05;;
23543;SDS011;11950;51.230;4.012;2023-02-01T07:06:48;17.75;;;2.40;;
23543;SDS011;11950;51.230;4.012;2023-02-01T07:09:14;10.73;;;2.58;;
23543;SDS011;11950;51.230;4.012;2023-02-01T07:11:41;15.43;;;2.22;;
23543;SDS011;11950;51.230;4.012;2023-02-01T07:14:09;12.75;;;2.22;;
23543;SDS011;11950;51.230;4.012;2023-02-01T07:16:36;10.95;;;2.55;;
23543;SDS011;11950;51.230;4.012;2023-02-01T07:19:02;11.45;;;2.00;;
23543;SDS011;11950;51.230;4.012;2023-02-01T07:21:29;12.27;;;1.90;;
23543;SDS011;11950;51.230;4.012;2023-02-01T07:23:55;14.88;;;2.20;;
23543;SDS011;11950;51.230;4.012;2023-02-01T07:26:21;18.48;;;2.60;;
23543;SDS011;11950;51.230;4.012;2023-02-01T07:28:48;15.70;;;2.28;;
23543;SDS011;11950;51.230;4.012;2023-02-01T07:31:15;15.50;;;2.30;;
23543;SDS011;11950;51.230;4.012;2023-02-01T07:33:50;14.88;;;2.33;;
23543;SDS011;11950;51.230;4.012;2023-02-01T07:36:20;10.00;;;2.15;;
23543;SDS011;11950;51.230;4.012;2023-02-01T07:38:46;16.35;;;2.30;;
23543;SDS011;11950;51.230;4.012;2023-02-01T07:41:13;15.88;;;3.38;;
23543;SDS011;11950;51.230;4.012;2023-02-01T07:43:40;13.55;;;2.33;;
23543;SDS011;11950;51.230;4.012;2023-02-01T07:46:06;15.85;;;2.30;;
23543;SDS011;11950;51.230;4.012;2023-02-01T07:48:33;11.95;;;1.92;;
23543;SDS011;11950;51.230;4.012;2023-02-01T07:51:00;13.05;;;2.70;;
23543;SDS011;11950;51.230;4.012;2023-02-01T07:53:53;19.38;;;3.03;;
23543;SDS011;11950;51.230;4.012;2023-02-01T07:56:20;11.18;;;2.22;;
23543;SDS011;11950;51.230;4.012;2023-02-01T07:58:51;10.40;;;2.10;;
23543;SDS011;11950;51.230;4.012;2023-02-01T08:01:21;16.17;;;2.42;;
23543;SDS011;11950;51.230;4.012;2023-02-01T08:03:54;13.80;;;2.67;;
23543;SDS011;11950;51.230;4.012;2023-02-01T08:06:25;11.68;;;2.08;;
23543;SDS011;11950;51.230;4.012;2023-02-01T08:08:52;14.65;;;3.33;;
23543;SDS011;11950;51.230;4.012;2023-02-01T08:11:19;14.38;;;2.47;;
23543;SDS011;11950;51.230;4.012;2023-02-01T08:13:46;14.18;;;2.13;;
23543;SDS011;11950;51.230;4.012;2023-02-01T08:16:14;17.40;;;2.55;;
23543;SDS011;11950;51.230;4.012;2023-02-01T08:18:42;11.77;;;2.35;;
23543;SDS011;11950;51.230;4.012;2023-02-01T08:21:12;19.92;;;2.92;;
23543;SDS011;11950;51.230;4.012;2023-02-01T08:23:41;16.45;;;2.33;;
23543;SDS011;11950;51.230;4.012;2023-02-01T08:26:09;15.88;;;2.47;;
23543;SDS011;11950;51.230;4.012;2023-02-01T08:28:53;18.10;;;2.78;;
23543;SDS011;11950;51.230;4.012;2023-02-01T08:31:22;11.73;;;2.03;;
23543;SDS011;11950;51.230;4.012;2023-02-01T08:33:51;13.35;;;2.33;;
23543;SDS011;11950;51.230;4.012;2023-02-01T08:36:19;13.55;;;2.40;;
23543;SDS011;11950;51.230;4.012;2023-02-01T08:38:46;16.85;;;2.35;;
23543;SDS011;11950;51.230;4.012;2023-02-01T08:41:13;14.93;;;2.08;;
23543;SDS011;11950;51.230;4.012;2023-02-01T08:43:42;19.05;;;2.60;;
23543;SDS011;11950;51.230;4.012;2023-02-01T08:46:08;11.35;;;2.05;;
23543;SDS011;11950;51.230;4.012;2023-02-01T08:48:35;14.82;;;2.33;;
23543;SDS011;11950;51.230;4.012;2023-02-01T08:51:06;17.95;;;2.13;;
23543;SDS011;11950;51.230;4.012;2023-02-01T08:53:34;13.07;;;2.38;;
23543;SDS011;11950;51.230;4.012;2023-02-01T08:56:01;14.70;;;2.47;;
23543;SDS011;11950;51.230;4.012;2023-02-01T08:58:28;10.73;;;2.42;;
23543;SDS011;11950;51.230;4.012;2023-02-01T09:00:55;11.77;;;2.53;;
23543;SDS011;11950;51.230;4.012;2023-02-01T09:03:21;17.35;;;2.30;;
23543;SDS011;11950;51.230;4.012;2023-02-01T09:05:47;16.55;;;3.08;;
23543;SDS011;11950;51.230;4.012;2023-02-01T09:08:14;14.90;;;2.13;;
23543;SDS011;11950;51.230;4.012;2023-02-01T09:10:41;14.20;;;1.95;;
23543;SDS011;11950;51.230;4.012;2023-02-01T09:13:08;10.38;;;1.70;;
23543;SDS011;11950;51.230;4.012;2023-02-01T09:15:34;16.60;;;2.40;;
23543;SDS011;11950;51.230;4.012;2023-02-01T09:18:02;17.10;;;2.55;;
23543;SDS011;11950;51.230;4.012;2023-02-01T09:20:28;23.20;;;2.58;;
23543;SDS011;11950;51.230;4.012;2023-02-01T09:22:55;13.93;;;2.00;;
23543;SDS011;11950;51.230;4.012;2023-02-01T09:25:21;14.30;;;1.98;;
23543;SDS011;11950;51.230;4.012;2023-02-01T09:27:47;14.82;;;1.90;;
23543;SDS011;11950;51.230;4.012;2023-02-01T09:30:14;19.65;;;2.58;;
23543;SDS011;11950;51.230;4.012;2023-02-01T09:32:40;14.90;;;2.25;;
23543;SDS011;11950;51.230;4.012;2023-02-01T09:35:06;18.17;;;2.55;;
23543;SDS011;11950;51.230;4.012;2023-02-01T09:37:33;18.42;;;1.98;;
23543;SDS011;11950;51.230;4.012;2023-02-01T09:39:59;16.45;;;2.28;;
23543;SDS011;11950;51.230;4.012;2023-02-01T09:45:32;14.32;;;2.13;;
23543;SDS011;11950;51.230;4.012;2023-02-01T09:48:05;10.35;;;1.83;;
23543;SDS011;11950;51.230;4.012;2023-02-01T09:50:43;12.00;;;2.38;;
23543;SDS011;11950;51.230;4.012;2023-02-01T09:55:56;12.13;;;1.50;;
23543;SDS011;11950;51.230;4.012;2023-02-01T09:58:35;16.00;;;2.10;;
23543;SDS011;11950;51.230;4.012;2023-02-01T10:01:43;13.32;;;2.00;;
23543;SDS011;11950;51.230;4.012;2023-02-01T10:04:04;19.67;;;2.65;;
23543;SDS011;11950;51.230;4.012;2023-02-01T10:25:50;9.90;;;1.20;;
23543;SDS011;11950;51.230;4.012;2023-02-01T10:28:20;15.73;;;1.67;;
23543;SDS011;11950;51.230;4.012;2023-02-01T10:30:49;10.35;;;1.50;;
23543;SDS011;11950;51.230;4.012;2023-02-01T10:33:25;10.68;;;1.60;;
23543;SDS011;11950;51.230;4.012;2023-02-01T10:38:33;16.58;;;2.22;;
23543;SDS011;11950;51.230;4.012;2023-02-01T10:41:01;10.95;;;1.65;;
23543;SDS011;11950;51.230;4.012;2023-02-01T10:43:36;15.23;;;1.77;;
23543;SDS011;11950;51.230;4.012;2023-02-01T10:46:03;10.68;;;1.55;;
23543;SDS011;11950;51.230;4.012;2023-02-01T10:48:30;11.10;;;1.50;;
23543;SDS011;11950;51.230;4.012;2023-02-01T10:51:02;11.15;;;1.40;;
23543;SDS011;11950;51.230;4.012;2023-02-01T10:53:39;13.48;;;1.80;;
23543;SDS011;11950;51.230;4.012;2023-02-01T10:56:13;11.50;;;1.50;;
23543;SDS011;11950;51.230;4.012;2023-02-01T10:58:43;12.73;;;2.55;;
23543;SDS011;11950;51.230;4.012;2023-02-01T11:01:19;11.20;;;1.88;;
23543;SDS011;11950;51.230;4.012;2023-02-01T11:04:00;14.13;;;1.38;;
23543;SDS011;11950;51.230;4.012;2023-02-01T11:06:29;15.18;;;1.60;;
23543;SDS011;11950;51.230;4.012;2023-02-01T11:09:09;12.07;;;2.05;;
23543;SDS011;11950;51.230;4.012;2023-02-01T11:14:15;11.63;;;1.67;;
23543;SDS011;11950;51.230;4.012;2023-02-01T11:16:47;10.88;;;1.52;;
23543;SDS011;11950;51.230;4.012;2023-02-01T11:19:16;10.65;;;1.38;;
23543;SDS011;11950;51.230;4.012;2023-02-01T11:21:43;14.43;;;2.20;;
23543;SDS011;11950;51.230;4.012;2023-02-01T11:24:21;15.85;;;1.35;;
23543;SDS011;11950;51.230;4.012;2023-02-01T11:26:57;8.85;;;1.58;;
23543;SDS011;11950;51.230;4.012;2023-02-01T11:29:32;13.07;;;1.63;;
23543;SDS011;11950;51.230;4.012;2023-02-01T11:32:05;10.35;;;1.50;;
23543;SDS011;11950;51.230;4.012;2023-02-01T11:34:39;11.48;;;1.52;;
23543;SDS011;11950;51.230;4.012;2023-02-01T11:37:29;12.85;;;1.65;;
23543;SDS011;11950;51.230;4.012;2023-02-01T11:40:01;9.73;;;2.08;;
23543;SDS011;11950;51.230;4.012;2023-02-01T11:42:55;8.75;;;1.67;;
23543;SDS011;11950;51.230;4.012;2023-02-01T11:45:25;9.13;;;1.48;;
23543;SDS011;11950;51.230;4.012;2023-02-01T11:47:53;11.70;;;1.30;;
23543;SDS011;11950;51.230;4.012;2023-02-01T11:50:44;8.32;;;1.13;;
23543;SDS011;11950;51.230;4.012;2023-02-01T11:53:19;8.77;;;1.25;;
23543;SDS011;11950;51.230;4.012;2023-02-01T11:55:50;10.55;;;1.30;;
23543;SDS011;11950;51.230;4.012;2023-02-01T12:06:51;7.68;;;1.35;;
23543;SDS011;11950;51.230;4.012;2023-02-01T12:12:30;10.90;;;1.75;;
23543;SDS011;11950;51.230;4.012;2023-02-01T12:18:02;8.55;;;2.05;;
23543;SDS011;11950;51.230;4.012;2023-02-01T12:26:33;12.90;;;1.70;;
23543;SDS011;11950;51.230;4.012;2023-02-01T12:37:04;8.95;;;1.20;;
23543;SDS011;11950;51.230;4.012;2023-02-01T12:39:48;9.30;;;1.33;;
23543;SDS011;11950;51.230;4.012;2023-02-01T12:43:22;11.68;;;1.63;;
23543;SDS011;11950;51.230;4.012;2023-02-01T12:45:58;8.55;;;1.40;;
23543;SDS011;11950;51.230;4.012;2023-02-01T12:48:29;11.77;;;1.45;;
23543;SDS011;11950;51.230;4.012;2023-02-01T12:50:59;10.88;;;1.50;;
23543;SDS011;11950;51.230;4.012;2023-02-01T12:56:57;8.18;;;1.30;;
23543;SDS011;11950;51.230;4.012;2023-02-01T12:59:10;9.05;;;1.50;;
23543;SDS011;11950;51.230;4.012;2023-02-01T13:04:28;11.30;;;1.48;;
23543;SDS011;11950;51.230;4.012;2023-02-01T13:07:07;8.57;;;1.92;;
23543;SDS011;11950;51.230;4.012;2023-02-01T13:09:43;10.13;;;1.60;;
23543;SDS011;11950;51.230;4.012;2023-02-01T13:12:21;13.80;;;1.40;;
23543;SDS011;11950;51.230;4.012;2023-02-01T13:14:57;8.38;;;1.23;;
23543;SDS011;11950;51.230;4.012;2023-02-01T13:17:39;13.52;;;1.70;;
23543;SDS011;11950;51.230;4.012;2023-02-01T13:22:59;13.20;;;1.50;;
23543;SDS011;11950;51.230;4.012;2023-02-01T13:25:52;8.43;;;1.52;;
23543;SDS011;11950;51.230;4.012;2023-02-01T13:37:14;12.60;;;2.08;;
23543;SDS011;11950;51.230;4.012;2023-02-01T13:43:06;12.95;;;1.30;;
23543;SDS011;11950;51.230;4.012;2023-02-01T13:45:46;10.93;;;1.52;;
23543;SDS011;11950;51.230;4.012;2023-02-01T13:48:21;10.77;;;1.65;;
23543;SDS011;11950;51.230;4.012;2023-02-01T13:50:51;12.45;;;1.83;;
23543;SDS011;11950;51.230;4.012;2023-02-01T13:53:23;10.52;;;1.73;;
23543;SDS011;11950;51.230;4.012;2023-02-01T13:56:12;11.77;;;1.52;;
23543;SDS011;11950;51.230;4.012;2023-02-01T13:58:41;10.57;;;1.70;;
23543;SDS011;11950;51.230;4.012;2023-02-01T14:03:53;11.63;;;1.55;;
23543;SDS011;11950;51.230;4.012;2023-02-01T14:11:49;11.82;;;1.80;;
23543;SDS011;11950;51.230;4.012;2023-02-01T14:17:30;17.35;;;2.28;;
23543;SDS011;11950;51.230;4.012;2023-02-01T14:19:36;16.33;;;2.05;;
23543;SDS011;11950;51.230;4.012;2023-02-01T14:24:56;11.23;;;1.55;;
23543;SDS011;11950;51.230;4.012;2023-02-01T14:27:24;11.20;;;1.83;;
23543;SDS011;11950;51.230;4.012;2023-02-01T14:29:57;11.15;;;1.67;;
23543;SDS011;11950;51.230;4.012;2023-02-01T14:32:35;17.23;;;1.90;;
23543;SDS011;11950;51.230;4.012;2023-02-01T14:35:08;15.90;;;2.00;;
23543;SDS011;11950;51.230;4.012;2023-02-01T14:37:47;11.57;;;2.00;;
23543;SDS011;11950;51.230;4.012;2023-02-01T14:40:20;14.15;;;1.98;;
23543;SDS011;11950;51.230;4.012;2023-02-01T14:42:53;12.38;;;2.03;;
23543;SDS011;11950;51.230;4.012;2023-02-01T14:47:49;13.70;;;2.38;;
23543;SDS011;11950;51.230;4.012;2023-02-01T14:50:27;18.80;;;2.08;;
23543;SDS011;11950;51.230;4.012;2023-02-01T15:00:52;15.25;;;1.70;;
23543;SDS011;11950;51.230;4.012;2023-02-01T15:05:56;15.93;;;2.25;;
23543;SDS011;11950;51.230;4.012;2023-02-01T15:08:25;16.02;;;2.05;;
23543;SDS011;11950;51.230;4.012;2023-02-01T15:10:58;14.13;;;2.08;;
23543;SDS011;11950;51.230;4.012;2023-02-01T15:13:28;17.88;;;2.53;;
23543;SDS011;11950;51.230;4.012;2023-02-01T15:16:14;14.18;;;1.83;;
23543;SDS011;11950;51.230;4.012;2023-02-01T15:18:41;13.75;;;2.10;;
23543;SDS011;11950;51.230;4.012;2023-02-01T15:21:18;17.10;;;2.25;;
23543;SDS011;11950;51.230;4.012;2023-02-01T15:23:46;13.27;;;1.70;;
23543;SDS011;11950;51.230;4.012;2023-02-01T15:26:30;12.93;;;2.00;;
23543;SDS011;11950;51.230;4.012;2023-02-01T15:28:58;12.70;;;2.13;;
23543;SDS011;11950;51.230;4.012;2023-02-01T15:31:31;13.13;;;2.10;;
23543;SDS011;11950;51.230;4.012;2023-02-01T15:34:02;16.35;;;2.38;;
23543;SDS011;11950;51.230;4.012;2023-02-01T15:36:29;13.73;;;3.08;;
23543;SDS011;11950;51.230;4.012;2023-02-01T15:39:16;14.05;;;2.03;;
23543;SDS011;11950;51.230;4.012;2023-02-01T15:41:57;14.88;;;2.42;;
23543;SDS011;11950;51.230;4.012;2023-02-01T15:44:33;16.25;;;2.42;;
23543;SDS011;11950;51.230;4.012;2023-02-01T15:47:13;15.07;;;2.28;;
23543;SDS011;11950;51.230;4.012;2023-02-01T15:49:43;17.23;;;2.53;;
23543;SDS011;11950;51.230;4.012;2023-02-01T15:52:35;13.85;;;2.03;;
23543;SDS011;11950;51.230;4.012;2023-02-01T15:55:00;16.33;;;2.42;;
23543;SDS011;11950;51.230;4.012;2023-02-01T15:57:30;17.33;;;2.85;;
23543;SDS011;11950;51.230;4.012;2023-02-01T16:00:03;14.77;;;2.55;;
23543;SDS011;11950;51.230;4.012;2023-02-01T16:02:44;18.80;;;3.47;;
23543;SDS011;11950;51.230;4.012;2023-02-01T16:05:36;15.27;;;2.67;;
23543;SDS011;11950;51.230;4.012;2023-02-01T16:10:44;20.80;;;2.60;;
23543;SDS011;11950;51.230;4.012;2023-02-01T16:13:13;17.65;;;2.05;;
23543;SDS011;11950;51.230;4.012;2023-02-01T16:15:41;13.45;;;2.70;;
23543;SDS011;11950;51.230;4.012;2023-02-01T16:18:08;16.00;;;2.55;;
23543;SDS011;11950;51.230;4.012;2023-02-01T16:20:36;11.63;;;2.42;;
23543;SDS011;11950;51.230;4.012;2023-02-01T16:23:04;17.63;;;2.30;;
23543;SDS011;11950;51.230;4.012;2023-02-01T16:25:31;16.80;;;2.25;;
23543;SDS011;11950;51.230;4.012;2023-02-01T16:27:58;19.25;;;2.70;;
23543;SDS011;11950;51.230;4.012;2023-02-01T16:30:24;23.48;;;3.95;;
23543;SDS011;11950;51.230;4.012;2023-02-01T16:32:54;18.80;;;2.67;;
23543;SDS011;11950;51.230;4.012;2023-02-01T16:35:24;18.73;;;2.58;;
23543;SDS011;11950;51.230;4.012;2023-02-01T16:37:57;11.90;;;2.33;;
23543;SDS011;11950;51.230;4.012;2023-02-01T16:40:24;15.27;;;2.53;;
23543;SDS011;11950;51.230;4.012;2023-02-01T16:42:51;14.15;;;2.13;;
23543;SDS011;11950;51.230;4.012;2023-02-01T16:45:20;17.88;;;2.92;;
23543;SDS011;11950;51.230;4.012;2023-02-01T16:47:48;20.33;;;3.20;;
23543;SDS011;11950;51.230;4.012;2023-02-01T16:50:18;15.20;;;2.55;;
23543;SDS011;11950;51.230;4.012;2023-02-01T16:52:47;14.65;;;2.30;;
23543;SDS011;11950;51.230;4.012;2023-02-01T16:55:15;13.57;;;2.35;;
23543;SDS011;11950;51.230;4.012;2023-02-01T16:57:43;15.30;;;2.78;;
23543;SDS011;11950;51.230;4.012;2023-02-01T17:00:10;11.50;;;2.13;;
23543;SDS011;11950;51.230;4.012;2023-02-01T17:02:37;17.48;;;2.55;;
23543;SDS011;11950;51.230;4.012;2023-02-01T17:05:04;17.40;;;2.80;;
23543;SDS011;11950;51.230;4.012;2023-02-01T17:07:31;11.15;;;2.40;;
23543;SDS011;11950;51.230;4.012;2023-02-01T17:09:58;23.33;;;3.30;;
23543;SDS011;11950;51.230;4.012;2023-02-01T17:12:26;26.65;;;5.75;;
23543;SDS011;11950;51.230;4.012;2023-02-01T17:14:56;30.07;;;7.53;;
23543;SDS011;11950;51.230;4.012;2023-02-01T17:17:23;18.40;;;4.45;;
23543;SDS011;11950;51.230;4.012;2023-02-01T17:20:02;17.67;;;3.35;;
23543;SDS011;11950;51.230;4.012;2023-02-01T17:22:29;12.77;;;2.53;;
23543;SDS011;11950;51.230;4.012;2023-02-01T17:24:55;17.45;;;3.13;;
23543;SDS011;11950;51.230;4.012;2023-02-01T17:27:22;12.90;;;2.50;;